Main page
METAR-TAF:

METAR-TAF

Airports :

Sulaymaniyah, Iraq

Sulaimaniyah International Airport

latitude: 35-33-39N, longitude: 45-18-52E, elevation: 760 m

Current weather observation

The report was made 1 hour and 0 minutes ago, at 01:00 UTC
Wind 6 kt from the West
Temperature 20°C
Humidity 32%
Pressure 1008 hPa
Visibility 10 km or more
no clouds below 1500 m and no cumulonimbus

METAR: ORSU 290100Z 28006KT CAVOK 20/03 Q1008

Time: 05:00 (02:00 UTC)

Forecast

The report was made 3 hours and 0 minutes ago, at 23:00 UTC
Forecast valid from 29 at 00 UTC to 30 at 00 UTC
Wind 6 kt from the Northwest
Visibility 10 km or more
no clouds below 1500 m and no cumulonimbus
Becoming
from 29 at 07 UTC to 29 at 09 UTC
Wind 15 kt from the West
Becoming
from 29 at 16 UTC to 29 at 18 UTC
Wind 6 kt from the North/Northwest

TAF: ORSU 282300Z 2900/3000 32006KT CAVOK BECMG 2907/2909 27015KT BECMG 2916/2918 34006KT

Weather observations and forecasts of more than 4000 airports (METAR and TAF reports).

The available stations are represented by yellow and red dots on the map.

Hover mouse over dot to see the name of the station.

Then click to see weather observations and forecasts.

To change the map : click on the green buttons with a black cross to zoom in, on the green button with a dash to zoom out, or on the green arrows for adjacent maps.


METAR-TAF: